createdAt,value
2022-08-04T00:02:19.104Z,94320.53
2022-08-04T00:04:54.024Z,94325.38
2022-08-04T00:07:44.051Z,94326.19
2022-08-04T00:10:16.519Z,94328.13
2022-08-04T00:12:47.986Z,94334.03
2022-08-04T00:15:17.106Z,94324.00
2022-08-04T00:17:54.279Z,94323.94
2022-08-04T00:20:22.167Z,94316.84
2022-08-04T00:22:52.204Z,94316.44
2022-08-04T00:25:19.816Z,94308.31
2022-08-04T00:27:47.066Z,94310.91
2022-08-04T00:30:13.791Z,94300.47
2022-08-04T00:32:43.761Z,94301.81
2022-08-04T00:35:13.350Z,94302.66
2022-08-04T00:37:41.139Z,94309.56
2022-08-04T00:40:22.568Z,94312.50
2022-08-04T00:43:00.169Z,94312.13
2022-08-04T00:46:11.678Z,94318.91
2022-08-04T00:48:47.573Z,94321.81
2022-08-04T00:51:35.521Z,94322.03
2022-08-04T00:54:17.916Z,94315.56
2022-08-04T00:57:06.277Z,94316.41
2022-08-04T01:00:06.902Z,94328.41
2022-08-04T01:02:54.401Z,94319.47
2022-08-04T01:05:37.690Z,94317.28
2022-08-04T01:08:33.867Z,94329.47
2022-08-04T01:11:25.154Z,94324.69
2022-08-04T01:14:16.790Z,94334.31
2022-08-04T01:16:53.118Z,94330.44
2022-08-04T01:19:41.315Z,94334.34
2022-08-04T01:22:15.643Z,94333.03
2022-08-04T01:25:08.402Z,94334.78
2022-08-04T01:28:05.744Z,94339.94
2022-08-04T01:30:36.247Z,94348.16
2022-08-04T01:33:05.227Z,94347.31
2022-08-04T01:35:46.579Z,94339.50
2022-08-04T01:38:23.806Z,94333.91
2022-08-04T01:40:57.392Z,94335.31
2022-08-04T01:43:24.859Z,94326.84
2022-08-04T01:45:59.452Z,94318.81
2022-08-04T01:48:27.554Z,94317.94
2022-08-04T01:50:58.842Z,94322.16
2022-08-04T01:53:45.996Z,94318.97
2022-08-04T01:56:12.938Z,94317.69
2022-08-04T01:58:40.898Z,94334.28
2022-08-04T02:01:10.508Z,94331.75
2022-08-04T02:04:20.208Z,94337.53
2022-08-04T02:06:52.378Z,94322.88
2022-08-04T02:09:30.821Z,94334.47
2022-08-04T02:12:25.988Z,94324.34
2022-08-04T02:15:26.525Z,94323.69
2022-08-04T02:18:21.137Z,94318.97
2022-08-04T02:20:53.448Z,94310.47
2022-08-04T02:23:29.023Z,94309.34
2022-08-04T02:26:02.916Z,94313.97
2022-08-04T02:28:40.384Z,94309.09
2022-08-04T02:31:15.657Z,94318.88
2022-08-04T02:33:47.978Z,94315.16
2022-08-04T02:36:23.823Z,94316.09
2022-08-04T02:39:00.523Z,94312.25
2022-08-04T02:41:29.763Z,94320.63
2022-08-04T02:44:00.702Z,94323.84
2022-08-04T02:46:28.437Z,94324.63
2022-08-04T02:48:56.270Z,94330.03
2022-08-04T02:51:43.577Z,94329.78
2022-08-04T02:54:10.284Z,94329.91
2022-08-04T02:56:39.529Z,94329.63
2022-08-04T02:59:08.822Z,94331.16
2022-08-04T03:01:36.175Z,94331.00
2022-08-04T03:04:11.854Z,94330.34
2022-08-04T03:06:41.237Z,94331.72
2022-08-04T03:09:28.963Z,94338.09
2022-08-04T03:12:14.138Z,94333.84
2022-08-04T03:14:55.191Z,94329.47
2022-08-04T03:17:52.447Z,94330.44
2022-08-04T03:20:37.726Z,94335.09
2022-08-04T03:23:14.178Z,94335.41
2022-08-04T03:26:17.671Z,94333.53
2022-08-04T03:29:06.031Z,94326.47
2022-08-04T03:31:35.540Z,94328.88
2022-08-04T03:34:20.495Z,94329.59
2022-08-04T03:37:19.149Z,94323.81
2022-08-04T03:40:22.779Z,94329.66
2022-08-04T03:43:07.471Z,94335.44
2022-08-04T03:46:12.902Z,94321.19
2022-08-04T03:49:10.474Z,94323.59
2022-08-04T03:52:01.727Z,94332.56
2022-08-04T03:54:46.984Z,94333.38
2022-08-04T03:57:35.132Z,94336.63
2022-08-04T04:00:44.537Z,94333.13
2022-08-04T04:03:48.401Z,94332.50
2022-08-04T04:06:53.698Z,94330.56
2022-08-04T04:09:23.558Z,94333.56
2022-08-04T04:12:18.232Z,94330.94
2022-08-04T04:14:50.820Z,94333.19
2022-08-04T04:17:44.959Z,94327.16
2022-08-04T04:20:25.871Z,94340.59
2022-08-04T04:23:11.063Z,94350.66
2022-08-04T04:26:01.979Z,94350.34
2022-08-04T04:28:45.795Z,94346.97
2022-08-04T04:31:22.147Z,94352.91
2022-08-04T04:34:07.862Z,94354.78
2022-08-04T04:36:57.282Z,94349.19
2022-08-04T04:39:49.042Z,94354.16
2022-08-04T04:42:44.220Z,94350.91
2022-08-04T04:45:31.213Z,94346.66
2022-08-04T04:48:10.832Z,94345.31
2022-08-04T04:50:58.947Z,94348.25
2022-08-04T04:54:08.103Z,94356.38
2022-08-04T04:56:34.891Z,94350.22
2022-08-04T04:59:03.777Z,94351.53
2022-08-04T05:02:09.324Z,94350.25
2022-08-04T05:04:54.153Z,94355.28
2022-08-04T05:07:20.873Z,94362.50
2022-08-04T05:09:50.786Z,94360.59
2022-08-04T05:14:31.769Z,94353.13
2022-08-04T05:15:16.611Z,94350.88
2022-08-04T05:17:50.148Z,94353.28
2022-08-04T05:20:29.229Z,94353.28
2022-08-04T05:23:09.231Z,94367.91
2022-08-04T05:25:40.152Z,94364.72
2022-08-04T05:28:16.439Z,94369.00
2022-08-04T05:30:49.918Z,94369.97
2022-08-04T05:33:29.116Z,94360.72
2022-08-04T05:36:18.926Z,94355.22
2022-08-04T05:38:51.565Z,94355.75
2022-08-04T05:41:19.289Z,94366.06
2022-08-04T05:43:46.921Z,94365.47
2022-08-04T05:46:16.511Z,94364.63
2022-08-04T05:48:45.763Z,94359.66
2022-08-04T05:51:14.144Z,94364.72
2022-08-04T05:53:44.388Z,94363.22
2022-08-04T05:56:13.717Z,94368.06
2022-08-04T05:58:41.693Z,94365.41
2022-08-04T06:01:10.742Z,94366.63
2022-08-04T06:03:39.467Z,94372.84
2022-08-04T06:06:08.277Z,94377.34
2022-08-04T06:08:34.987Z,94380.38
2022-08-04T06:11:06.324Z,94382.25
2022-08-04T06:13:53.756Z,94376.91
2022-08-04T06:20:02.462Z,94374.03
2022-08-04T06:22:04.765Z,94383.88
2022-08-04T06:24:33.147Z,94380.59
2022-08-04T06:27:03.251Z,94376.41
2022-08-04T06:29:38.952Z,94372.50
2022-08-04T06:32:34.384Z,94384.72
2022-08-04T06:35:06.600Z,94369.84
2022-08-04T06:37:42.807Z,94375.44
2022-08-04T06:40:29.933Z,94378.06
2022-08-04T06:43:01.232Z,94368.16
2022-08-04T06:45:28.598Z,94370.66
2022-08-04T06:47:56.359Z,94372.34
2022-08-04T06:51:24.724Z,94372.19
2022-08-04T06:53:21.937Z,94382.66
2022-08-04T06:55:50.446Z,94377.22
2022-08-04T06:58:19.327Z,94375.41
2022-08-04T07:00:47.842Z,94371.09
2022-08-04T07:03:17.815Z,94370.06
2022-08-04T07:05:47.703Z,94377.03
2022-08-04T07:08:14.888Z,94375.25
2022-08-04T07:10:41.983Z,94375.59
2022-08-04T07:13:10.562Z,94374.13
2022-08-04T07:15:41.386Z,94380.97
2022-08-04T07:18:08.199Z,94376.44
2022-08-04T07:20:36.751Z,94375.41
2022-08-04T07:23:05.803Z,94373.25
2022-08-04T07:26:11.095Z,94366.56
2022-08-04T07:28:24.167Z,94361.47
2022-08-04T07:30:51.156Z,94367.09
2022-08-04T07:33:18.556Z,94366.06
2022-08-04T07:36:10.191Z,94364.63
2022-08-04T07:38:51.071Z,94367.22
2022-08-04T07:41:40.342Z,94358.28
2022-08-04T07:44:08.423Z,94365.06
2022-08-04T07:46:37.070Z,94361.16
2022-08-04T07:49:05.397Z,94365.31
2022-08-04T07:51:32.683Z,94362.66
2022-08-04T07:54:00.463Z,94358.31
2022-08-04T07:56:28.040Z,94374.75
2022-08-04T07:58:55.388Z,94361.31
2022-08-04T08:01:26.086Z,94363.75
2022-08-04T08:03:55.484Z,94362.59
2022-08-04T08:06:32.714Z,94369.69
2022-08-04T08:09:14.339Z,94361.81
2022-08-04T08:12:35.762Z,94365.72
2022-08-04T08:14:35.576Z,94370.94
2022-08-04T08:17:03.803Z,94360.81
2022-08-04T08:19:34.875Z,94362.97
2022-08-04T08:22:02.580Z,94363.97
2022-08-04T08:24:31.149Z,94356.31
2022-08-04T08:26:58.553Z,94359.56
2022-08-04T08:29:26.283Z,94357.81
2022-08-04T08:31:57.528Z,94363.59
2022-08-04T08:34:31.117Z,94360.88
2022-08-04T08:37:10.990Z,94370.44
2022-08-04T08:39:42.735Z,94358.78
2022-08-04T08:42:09.450Z,94368.59
2022-08-04T08:45:01.265Z,94365.25
2022-08-04T08:48:04.870Z,94359.03
2022-08-04T08:51:09.055Z,94366.13
2022-08-04T08:53:57.022Z,94360.56
2022-08-04T08:56:35.567Z,94355.59
2022-08-04T08:59:15.796Z,94363.44
2022-08-04T09:02:01.274Z,94353.19
2022-08-04T09:04:55.819Z,94360.94
2022-08-04T09:07:37.906Z,94362.84
2022-08-04T09:10:38.673Z,94362.88
2022-08-04T09:13:16.246Z,94362.34
2022-08-04T09:16:19.637Z,94354.97
2022-08-04T09:18:46.225Z,94348.66
2022-08-04T09:21:33.456Z,94348.81
2022-08-04T09:24:35.645Z,94352.34
2022-08-04T09:27:20.297Z,94347.41
2022-08-04T09:30:09.292Z,94341.63
2022-08-04T09:32:38.952Z,94342.47
2022-08-04T09:36:01.106Z,94341.19
2022-08-04T09:38:33.244Z,94339.78
2022-08-04T09:41:22.087Z,94334.13
2022-08-04T09:44:52.419Z,94335.78
2022-08-04T09:47:45.814Z,94343.75
2022-08-04T09:50:49.979Z,94338.81
2022-08-04T09:53:41.692Z,94345.59
2022-08-04T09:56:27.291Z,94337.94
2022-08-04T09:59:50.673Z,94346.81
2022-08-04T10:02:19.676Z,94340.53
2022-08-04T10:04:49.624Z,94334.88
2022-08-04T10:07:22.593Z,94333.56
2022-08-04T10:10:01.265Z,94323.22
2022-08-04T10:12:41.888Z,94321.88
2022-08-04T10:15:20.213Z,94329.97
2022-08-04T10:18:07.983Z,94327.69
2022-08-04T10:21:00.013Z,94325.81
2022-08-04T10:23:55.971Z,94328.16
2022-08-04T10:26:35.071Z,94316.50
2022-08-04T10:29:12.591Z,94320.34
2022-08-04T10:32:00.553Z,94315.25
2022-08-04T10:34:31.884Z,94312.19
2022-08-04T10:37:59.040Z,94307.97
2022-08-04T10:40:45.329Z,94315.28
2022-08-04T10:43:46.391Z,94306.28
2022-08-04T10:46:17.484Z,94296.59
2022-08-04T10:49:35.195Z,94301.19
2022-08-04T10:52:19.610Z,94303.94
2022-08-04T10:55:00.943Z,94299.25
2022-08-04T10:57:39.365Z,94293.13
2022-08-04T11:00:10.548Z,94298.25
2022-08-04T11:02:58.333Z,94288.22
2022-08-04T11:05:44.140Z,94307.69
2022-08-04T11:08:25.295Z,94301.84
2022-08-04T11:11:10.014Z,94299.09
2022-08-04T11:14:03.417Z,94293.78
2022-08-04T11:17:07.924Z,94299.75
2022-08-04T11:19:49.991Z,94291.38
2022-08-04T11:22:25.636Z,94289.75
2022-08-04T11:25:00.916Z,94285.03
2022-08-04T11:28:01.473Z,94280.47
2022-08-04T11:30:38.094Z,94276.78
2022-08-04T11:33:16.969Z,94284.78
2022-08-04T11:36:14.866Z,94273.00
2022-08-04T11:38:53.526Z,94274.34
2022-08-04T11:41:26.729Z,94271.31
2022-08-04T11:44:04.280Z,94264.16
2022-08-04T11:46:48.949Z,94261.22
2022-08-04T11:49:22.063Z,94268.63
2022-08-04T11:51:51.814Z,94264.06
2022-08-04T11:54:19.220Z,94264.91
2022-08-04T11:56:46.473Z,94261.22
2022-08-04T11:59:13.265Z,94258.53
2022-08-04T12:01:58.394Z,94258.19
2022-08-04T12:04:47.620Z,94261.28
2022-08-04T12:07:30.590Z,94254.09
2022-08-04T12:10:04.129Z,94253.03
2022-08-04T12:12:39.733Z,94247.69
2022-08-04T12:15:15.297Z,94252.69
2022-08-04T12:18:07.704Z,94266.84
2022-08-04T12:20:43.417Z,94255.28
2022-08-04T12:23:40.320Z,94266.47
2022-08-04T12:26:10.824Z,94259.78
2022-08-04T12:29:09.068Z,94264.78
2022-08-04T12:31:40.473Z,94255.91
2022-08-04T12:34:17.299Z,94261.22
2022-08-04T12:36:55.881Z,94260.69
2022-08-04T12:39:23.405Z,94258.19
2022-08-04T12:42:17.079Z,94247.72
2022-08-04T12:44:49.963Z,94251.16
2022-08-04T12:47:28.134Z,94261.31
2022-08-04T12:50:02.116Z,94253.78
2022-08-04T12:55:31.644Z,94246.16
2022-08-04T12:58:00.227Z,94251.41
2022-08-04T13:00:39.700Z,94245.28
2022-08-04T13:03:11.803Z,94243.59
2022-08-04T13:05:42.949Z,94245.84
2022-08-04T13:08:14.336Z,94244.78
2022-08-04T13:10:44.529Z,94240.81
2022-08-04T13:13:20.017Z,94240.72
2022-08-04T13:16:01.707Z,94239.56
2022-08-04T13:18:32.840Z,94237.00
2022-08-04T13:21:19.328Z,94236.69
2022-08-04T13:24:09.515Z,94241.28
2022-08-04T13:26:43.704Z,94229.47
2022-08-04T13:29:59.004Z,94235.78
2022-08-04T13:32:15.356Z,94223.41
2022-08-04T13:34:49.120Z,94220.81
2022-08-04T13:37:21.059Z,94218.06
2022-08-04T13:39:55.899Z,94210.09
2022-08-04T13:42:25.836Z,94211.25
2022-08-04T13:44:57.253Z,94217.63
2022-08-04T13:47:29.806Z,94210.81
2022-08-04T13:50:14.122Z,94216.66
2022-08-04T13:52:42.411Z,94213.28
2022-08-04T13:55:19.967Z,94212.16
2022-08-04T13:57:53.001Z,94210.72
2022-08-04T14:00:29.135Z,94216.44
2022-08-04T14:03:19.099Z,94213.88
2022-08-04T14:06:26.209Z,94212.16
2022-08-04T14:09:01.495Z,94201.72
2022-08-04T14:12:10.615Z,94204.94
2022-08-04T14:14:27.666Z,94195.78
2022-08-04T14:17:06.081Z,94186.00
2022-08-04T14:19:50.174Z,94195.88
2022-08-04T14:22:25.626Z,94192.44
2022-08-04T14:25:15.811Z,94184.56
2022-08-04T14:27:55.188Z,94183.03
2022-08-04T14:30:24.679Z,94186.28
2022-08-04T14:34:02.662Z,94186.75
2022-08-04T14:35:59.071Z,94183.03
2022-08-04T14:38:42.575Z,94192.28
2022-08-04T14:41:12.339Z,94188.50
2022-08-04T14:43:45.067Z,94182.59
2022-08-04T14:46:12.935Z,94182.28
2022-08-04T14:48:42.973Z,94190.09
2022-08-04T14:51:16.633Z,94182.75
2022-08-04T14:53:52.914Z,94182.41
2022-08-04T14:56:45.022Z,94176.59
2022-08-04T14:59:11.692Z,94182.88
2022-08-04T15:01:39.592Z,94177.34
2022-08-04T15:04:07.499Z,94183.41
2022-08-04T15:06:35.951Z,94179.25
2022-08-04T15:09:07.103Z,94181.25
2022-08-04T15:11:38.907Z,94182.00
2022-08-04T15:14:08.646Z,94186.00
2022-08-04T15:16:55.357Z,94181.25
2022-08-04T15:19:22.822Z,94180.66
2022-08-04T15:21:49.888Z,94184.47
2022-08-04T15:24:16.765Z,94187.50
2022-08-04T15:26:48.803Z,94179.22
2022-08-04T15:29:31.778Z,94185.50
2022-08-04T15:32:19.403Z,94178.44
2022-08-04T15:34:52.257Z,94177.44
2022-08-04T15:37:28.933Z,94177.44
2022-08-04T15:40:09.885Z,94176.31
2022-08-04T15:42:43.617Z,94182.78
2022-08-04T15:46:30.774Z,94180.94
2022-08-04T15:48:10.930Z,94175.38
2022-08-04T15:51:00.682Z,94183.56
2022-08-04T15:54:02.235Z,94188.81
2022-08-04T15:56:26.553Z,94174.19
2022-08-04T15:58:55.212Z,94175.16
2022-08-04T16:01:22.502Z,94173.28
2022-08-04T16:03:54.302Z,94178.47
2022-08-04T16:06:29.117Z,94183.34
2022-08-04T16:09:05.068Z,94172.56
2022-08-04T16:11:33.338Z,94170.69
2022-08-04T16:14:00.187Z,94176.97
2022-08-04T16:16:49.976Z,94171.94
2022-08-04T16:19:53.304Z,94171.00
2022-08-04T16:22:40.591Z,94173.44
2022-08-04T16:25:09.177Z,94172.69
2022-08-04T16:27:41.814Z,94165.81
2022-08-04T16:30:15.029Z,94172.94
2022-08-04T16:32:43.972Z,94164.56
2022-08-04T16:35:28.751Z,94165.97
2022-08-04T16:38:13.268Z,94168.81
2022-08-04T16:40:44.314Z,94173.44
2022-08-04T16:43:16.592Z,94169.59
2022-08-04T16:46:03.765Z,94164.59
2022-08-04T16:48:30.423Z,94162.25
2022-08-04T16:51:04.546Z,94165.47
2022-08-04T16:53:53.703Z,94169.41
2022-08-04T16:56:33.074Z,94171.16
2022-08-04T16:59:09.797Z,94172.78
2022-08-04T17:01:37.623Z,94173.13
2022-08-04T17:04:05.849Z,94179.84
2022-08-04T17:06:41.541Z,94181.63
2022-08-04T17:09:18.029Z,94176.84
2022-08-04T17:11:46.627Z,94177.63
2022-08-04T17:14:13.734Z,94183.56
2022-08-04T17:16:43.478Z,94186.72
2022-08-04T17:19:23.653Z,94192.03
2022-08-04T17:21:56.585Z,94199.28
2022-08-04T17:24:25.654Z,94190.00
2022-08-04T17:26:54.598Z,94200.69
2022-08-04T17:29:43.109Z,94206.41
2022-08-04T17:32:16.956Z,94207.28
2022-08-04T17:34:49.060Z,94210.41
2022-08-04T17:37:39.051Z,94209.22
2022-08-04T17:40:10.385Z,94221.31
2022-08-04T17:45:50.810Z,94213.50
2022-08-04T17:48:24.831Z,94223.38
2022-08-04T17:50:52.331Z,94222.28
2022-08-04T17:54:03.209Z,94216.25
2022-08-04T17:56:51.793Z,94221.31
2022-08-04T17:59:52.249Z,94222.66
2022-08-04T18:02:10.524Z,94227.41
2022-08-04T18:05:06.273Z,94222.81
2022-08-04T18:08:38.246Z,94221.78
2022-08-04T18:10:44.473Z,94228.03
2022-08-04T18:13:21.575Z,94230.50
2022-08-04T18:15:48.449Z,94237.97
2022-08-04T18:18:23.621Z,94235.84
2022-08-04T18:20:50.678Z,94238.91
2022-08-04T18:23:17.570Z,94235.22
2022-08-04T18:25:51.219Z,94241.34
2022-08-04T18:28:26.497Z,94242.72
2022-08-04T18:33:42.118Z,94252.44
2022-08-04T18:36:35.531Z,94247.53
2022-08-04T18:39:13.123Z,94246.75
2022-08-04T18:42:00.783Z,94251.94
2022-08-04T18:44:52.219Z,94249.34
2022-08-04T18:47:22.977Z,94251.03
2022-08-04T18:50:59.272Z,94256.84
2022-08-04T18:52:42.003Z,94256.06
2022-08-04T18:55:12.949Z,94268.22
2022-08-04T18:58:01.598Z,94263.25
2022-08-04T19:00:32.947Z,94258.34
2022-08-04T19:03:01.274Z,94266.44
2022-08-04T19:05:37.749Z,94268.75
2022-08-04T19:08:11.492Z,94271.66
2022-08-04T19:11:00.005Z,94270.25
2022-08-04T19:13:28.079Z,94272.34
2022-08-04T19:15:54.873Z,94274.59
2022-08-04T19:18:25.819Z,94274.78
2022-08-04T19:20:55.040Z,94266.94
2022-08-04T19:24:10.582Z,94270.09
2022-08-04T19:26:23.725Z,94279.41
2022-08-04T19:28:55.616Z,94275.06
2022-08-04T19:31:28.390Z,94274.50
2022-08-04T19:34:07.406Z,94272.72
2022-08-04T19:36:34.818Z,94268.25
2022-08-04T19:39:11.191Z,94272.38
2022-08-04T19:42:05.847Z,94275.13
2022-08-04T19:44:29.868Z,94276.38
2022-08-04T19:46:57.383Z,94275.59
2022-08-04T19:50:05.373Z,94280.19
2022-08-04T19:52:14.412Z,94269.63
2022-08-04T19:55:00.181Z,94273.63
2022-08-04T19:57:36.829Z,94273.94
2022-08-04T20:00:05.445Z,94281.53
2022-08-04T20:02:32.649Z,94270.09
2022-08-04T20:05:02.199Z,94277.38
2022-08-04T20:07:35.614Z,94280.25
2022-08-04T20:10:04.433Z,94281.91
2022-08-04T20:12:31.841Z,94280.50
2022-08-04T20:17:55.810Z,94281.19
2022-08-04T20:20:32.222Z,94287.50
2022-08-04T20:22:58.944Z,94287.00
2022-08-04T20:28:25.747Z,94280.81
2022-08-04T20:30:59.521Z,94286.69
2022-08-04T20:33:26.304Z,94283.50
2022-08-04T20:36:05.529Z,94285.66
2022-08-04T20:38:34.406Z,94290.97
2022-08-04T20:41:01.772Z,94284.44
2022-08-04T20:43:31.231Z,94290.31
2022-08-04T20:45:59.387Z,94280.66
2022-08-04T20:48:29.918Z,94282.88
2022-08-04T20:51:00.608Z,94284.97
2022-08-04T20:53:46.393Z,94288.78
2022-08-04T20:56:19.059Z,94284.84
2022-08-04T20:58:57.856Z,94292.59
2022-08-04T21:01:29.665Z,94284.16
2022-08-04T21:04:27.263Z,94288.88
2022-08-04T21:06:56.013Z,94289.00
2022-08-04T21:09:37.462Z,94290.41
2022-08-04T21:12:09.905Z,94295.84
2022-08-04T21:14:36.683Z,94294.34
2022-08-04T21:17:04.097Z,94303.09
2022-08-04T21:19:36.842Z,94296.66
2022-08-04T21:22:10.436Z,94296.84
2022-08-04T21:24:37.795Z,94296.19
2022-08-04T21:27:09.870Z,94292.91
2022-08-04T21:29:37.536Z,94302.25
2022-08-04T21:32:07.669Z,94300.13
2022-08-04T21:34:37.889Z,94302.22
2022-08-04T21:37:05.909Z,94305.16
2022-08-04T21:39:32.970Z,94311.53
2022-08-04T21:42:29.539Z,94309.22
2022-08-04T21:44:57.658Z,94303.97
2022-08-04T21:47:24.546Z,94299.94
2022-08-04T21:49:56.827Z,94300.91
2022-08-04T21:52:24.674Z,94303.97
2022-08-04T21:54:54.463Z,94303.09
2022-08-04T21:57:24.894Z,94308.25
2022-08-04T21:59:52.324Z,94305.50
2022-08-04T22:02:19.489Z,94304.31
2022-08-04T22:04:48.383Z,94312.84
2022-08-04T22:07:20.294Z,94301.22
2022-08-04T22:10:00.143Z,94308.41
2022-08-04T22:12:29.868Z,94305.59
2022-08-04T22:14:59.329Z,94304.94
2022-08-04T22:17:27.536Z,94299.63
2022-08-04T22:20:02.323Z,94306.03
2022-08-04T22:22:30.025Z,94308.09
2022-08-04T22:25:01.406Z,94304.81
2022-08-04T22:27:54.957Z,94296.06
2022-08-04T22:30:23.654Z,94293.09
2022-08-04T22:32:50.635Z,94297.81
2022-08-04T22:35:36.353Z,94302.41
2022-08-04T22:38:24.100Z,94297.94
2022-08-04T22:41:03.829Z,94289.44
2022-08-04T22:43:34.396Z,94290.91
2022-08-04T22:46:05.200Z,94287.53
2022-08-04T22:48:35.492Z,94290.47
2022-08-04T22:51:03.169Z,94292.34
2022-08-04T22:53:30.720Z,94293.38
2022-08-04T22:56:10.016Z,94292.91
2022-08-04T22:58:45.051Z,94292.72
2022-08-04T23:01:13.400Z,94288.78
2022-08-04T23:03:42.823Z,94290.31
2022-08-04T23:06:24.378Z,94289.66
2022-08-04T23:08:52.048Z,94284.19
2022-08-04T23:11:19.106Z,94297.53
2022-08-04T23:13:46.059Z,94282.84
2022-08-04T23:16:14.218Z,94283.84
2022-08-04T23:18:42.072Z,94285.38
2022-08-04T23:21:10.301Z,94289.59
2022-08-04T23:23:47.794Z,94290.81
2022-08-04T23:26:27.748Z,94294.09
2022-08-04T23:28:56.109Z,94294.16
2022-08-04T23:31:23.725Z,94297.06
2022-08-04T23:33:51.982Z,94296.84
2022-08-04T23:36:29.517Z,94296.78
2022-08-04T23:39:04.230Z,94290.88
2022-08-04T23:41:50.932Z,94292.78
2022-08-04T23:44:24.217Z,94290.38
2022-08-04T23:46:57.950Z,94287.97
2022-08-04T23:49:25.284Z,94291.72
2022-08-04T23:52:23.204Z,94287.28
2022-08-04T23:54:55.215Z,94286.09
2022-08-04T23:57:22.374Z,94286.09
2022-08-04T23:59:54.327Z,94296.94
